sensor_id;sensor_type;location;lat;lon;timestamp;temperature;humidity
68235;DHT22;55052;52.056;5.296;2023-03-14T00:00:59;12.60;82.10
68235;DHT22;55052;52.056;5.296;2023-03-14T00:03:28;12.60;81.90
68235;DHT22;55052;52.056;5.296;2023-03-14T00:05:55;12.50;81.60
68235;DHT22;55052;52.056;5.296;2023-03-14T00:08:21;12.60;81.70
68235;DHT22;55052;52.056;5.296;2023-03-14T00:10:48;12.50;81.40
68235;DHT22;55052;52.056;5.296;2023-03-14T00:13:15;12.50;81.30
68235;DHT22;55052;52.056;5.296;2023-03-14T00:15:42;12.50;81.10
68235;DHT22;55052;52.056;5.296;2023-03-14T00:18:08;12.50;81.00
68235;DHT22;55052;52.056;5.296;2023-03-14T00:20:35;12.50;80.80
68235;DHT22;55052;52.056;5.296;2023-03-14T00:23:02;12.50;80.60
68235;DHT22;55052;52.056;5.296;2023-03-14T00:25:29;12.50;80.30
68235;DHT22;55052;52.056;5.296;2023-03-14T00:27:56;12.50;80.20
68235;DHT22;55052;52.056;5.296;2023-03-14T00:30:22;12.50;80.00
68235;DHT22;55052;52.056;5.296;2023-03-14T00:32:49;12.50;79.80
68235;DHT22;55052;52.056;5.296;2023-03-14T00:35:16;12.50;80.60
68235;DHT22;55052;52.056;5.296;2023-03-14T00:37:43;12.50;79.60
68235;DHT22;55052;52.056;5.296;2023-03-14T00:40:10;12.50;79.60
68235;DHT22;55052;52.056;5.296;2023-03-14T00:42:37;12.40;79.50
68235;DHT22;55052;52.056;5.296;2023-03-14T00:45:04;12.40;79.60
68235;DHT22;55052;52.056;5.296;2023-03-14T00:47:30;12.40;79.40
68235;DHT22;55052;52.056;5.296;2023-03-14T00:49:57;12.40;80.30
68235;DHT22;55052;52.056;5.296;2023-03-14T00:52:24;12.40;79.40
68235;DHT22;55052;52.056;5.296;2023-03-14T00:54:51;12.40;79.50
68235;DHT22;55052;52.056;5.296;2023-03-14T00:57:17;12.40;79.40
68235;DHT22;55052;52.056;5.296;2023-03-14T00:59:44;12.30;79.40
68235;DHT22;55052;52.056;5.296;2023-03-14T01:02:11;12.30;79.60
68235;DHT22;55052;52.056;5.296;2023-03-14T01:04:38;12.30;79.80
68235;DHT22;55052;52.056;5.296;2023-03-14T01:07:06;12.20;80.00
68235;DHT22;55052;52.056;5.296;2023-03-14T01:09:32;12.10;80.30
68235;DHT22;55052;52.056;5.296;2023-03-14T01:11:59;12.10;80.60
68235;DHT22;55052;52.056;5.296;2023-03-14T01:14:26;12.00;80.90
68235;DHT22;55052;52.056;5.296;2023-03-14T01:16:52;12.00;81.50
68235;DHT22;55052;52.056;5.296;2023-03-14T01:19:19;11.90;82.10
68235;DHT22;55052;52.056;5.296;2023-03-14T01:21:46;11.80;82.80
68235;DHT22;55052;52.056;5.296;2023-03-14T01:24:13;11.80;83.40
68235;DHT22;55052;52.056;5.296;2023-03-14T01:26:39;11.70;84.10
68235;DHT22;55052;52.056;5.296;2023-03-14T01:29:06;11.60;84.90
68235;DHT22;55052;52.056;5.296;2023-03-14T01:31:33;11.50;85.50
68235;DHT22;55052;52.056;5.296;2023-03-14T01:34:00;11.50;86.00
68235;DHT22;55052;52.056;5.296;2023-03-14T01:36:27;11.40;86.50
68235;DHT22;55052;52.056;5.296;2023-03-14T01:38:56;11.30;86.70
68235;DHT22;55052;52.056;5.296;2023-03-14T01:41:24;11.30;87.30
68235;DHT22;55052;52.056;5.296;2023-03-14T01:43:52;11.20;87.40
68235;DHT22;55052;52.056;5.296;2023-03-14T01:46:40;11.20;87.90
68235;DHT22;55052;52.056;5.296;2023-03-14T01:49:31;11.20;88.40
68235;DHT22;55052;52.056;5.296;2023-03-14T01:52:06;11.20;88.60
68235;DHT22;55052;52.056;5.296;2023-03-14T01:54:43;11.10;88.80
68235;DHT22;55052;52.056;5.296;2023-03-14T01:57:17;11.10;88.90
68235;DHT22;55052;52.056;5.296;2023-03-14T01:59:55;11.10;89.10
68235;DHT22;55052;52.056;5.296;2023-03-14T02:02:24;11.10;89.20
68235;DHT22;55052;52.056;5.296;2023-03-14T02:04:54;11.10;89.20
68235;DHT22;55052;52.056;5.296;2023-03-14T02:08:08;11.10;89.20
68235;DHT22;55052;52.056;5.296;2023-03-14T02:10:17;11.10;89.40
68235;DHT22;55052;52.056;5.296;2023-03-14T02:12:49;11.10;89.40
68235;DHT22;55052;52.056;5.296;2023-03-14T02:15:18;11.10;89.50
68235;DHT22;55052;52.056;5.296;2023-03-14T02:17:45;11.00;90.10
68235;DHT22;55052;52.056;5.296;2023-03-14T02:21:11;11.00;89.40
68235;DHT22;55052;52.056;5.296;2023-03-14T02:23:27;11.00;89.50
68235;DHT22;55052;52.056;5.296;2023-03-14T02:26:03;11.00;89.60
68235;DHT22;55052;52.056;5.296;2023-03-14T02:28:32;11.00;89.80
68235;DHT22;55052;52.056;5.296;2023-03-14T02:30:59;11.00;89.80
68235;DHT22;55052;52.056;5.296;2023-03-14T02:33:27;11.00;90.00
68235;DHT22;55052;52.056;5.296;2023-03-14T02:35:58;11.00;89.90
68235;DHT22;55052;52.056;5.296;2023-03-14T02:38:37;11.00;90.00
68235;DHT22;55052;52.056;5.296;2023-03-14T02:41:06;11.00;90.10
68235;DHT22;55052;52.056;5.296;2023-03-14T02:43:33;11.00;90.10
68235;DHT22;55052;52.056;5.296;2023-03-14T02:46:01;11.00;90.10
68235;DHT22;55052;52.056;5.296;2023-03-14T02:48:38;11.00;90.60
68235;DHT22;55052;52.056;5.296;2023-03-14T02:51:06;11.00;90.20
68235;DHT22;55052;52.056;5.296;2023-03-14T02:53:36;11.00;90.20
68235;DHT22;55052;52.056;5.296;2023-03-14T02:56:04;11.00;90.20
68235;DHT22;55052;52.056;5.296;2023-03-14T02:58:31;11.00;90.30
68235;DHT22;55052;52.056;5.296;2023-03-14T03:00:58;11.00;90.30
68235;DHT22;55052;52.056;5.296;2023-03-14T03:03:25;11.00;90.30
68235;DHT22;55052;52.056;5.296;2023-03-14T03:05:53;11.00;90.30
68235;DHT22;55052;52.056;5.296;2023-03-14T03:08:22;11.00;90.40
68235;DHT22;55052;52.056;5.296;2023-03-14T03:10:50;11.00;90.40
68235;DHT22;55052;52.056;5.296;2023-03-14T03:13:18;11.00;90.40
68235;DHT22;55052;52.056;5.296;2023-03-14T03:15:45;11.00;90.40
68235;DHT22;55052;52.056;5.296;2023-03-14T03:18:12;11.00;90.40
68235;DHT22;55052;52.056;5.296;2023-03-14T03:20:39;11.00;90.40
68235;DHT22;55052;52.056;5.296;2023-03-14T03:23:06;11.00;90.40
68235;DHT22;55052;52.056;5.296;2023-03-14T03:25:32;11.00;90.40
68235;DHT22;55052;52.056;5.296;2023-03-14T03:28:00;11.00;90.40
68235;DHT22;55052;52.056;5.296;2023-03-14T03:30:26;11.00;90.40
68235;DHT22;55052;52.056;5.296;2023-03-14T03:32:53;11.00;90.30
68235;DHT22;55052;52.056;5.296;2023-03-14T03:35:20;11.00;90.30
68235;DHT22;55052;52.056;5.296;2023-03-14T03:37:47;11.00;90.30
68235;DHT22;55052;52.056;5.296;2023-03-14T03:40:13;11.00;90.30
68235;DHT22;55052;52.056;5.296;2023-03-14T03:42:40;11.00;90.30
68235;DHT22;55052;52.056;5.296;2023-03-14T03:45:07;11.00;90.20
68235;DHT22;55052;52.056;5.296;2023-03-14T03:47:34;11.00;90.10
68235;DHT22;55052;52.056;5.296;2023-03-14T03:50:01;11.00;90.10
68235;DHT22;55052;52.056;5.296;2023-03-14T03:52:28;11.00;90.10
68235;DHT22;55052;52.056;5.296;2023-03-14T03:54:54;11.10;90.00
68235;DHT22;55052;52.056;5.296;2023-03-14T03:57:21;11.10;90.00
68235;DHT22;55052;52.056;5.296;2023-03-14T03:59:48;11.10;89.90
68235;DHT22;55052;52.056;5.296;2023-03-14T04:02:15;11.10;89.90
68235;DHT22;55052;52.056;5.296;2023-03-14T04:04:42;11.10;89.80
68235;DHT22;55052;52.056;5.296;2023-03-14T04:07:08;11.10;89.60
68235;DHT22;55052;52.056;5.296;2023-03-14T04:09:37;11.20;89.60
68235;DHT22;55052;52.056;5.296;2023-03-14T04:12:04;11.20;89.50
68235;DHT22;55052;52.056;5.296;2023-03-14T04:14:31;11.10;89.30
68235;DHT22;55052;52.056;5.296;2023-03-14T04:16:58;11.20;89.30
68235;DHT22;55052;52.056;5.296;2023-03-14T04:19:25;11.20;89.20
68235;DHT22;55052;52.056;5.296;2023-03-14T04:21:51;11.20;89.10
68235;DHT22;55052;52.056;5.296;2023-03-14T04:24:18;11.20;89.10
68235;DHT22;55052;52.056;5.296;2023-03-14T04:26:45;11.20;88.90
68235;DHT22;55052;52.056;5.296;2023-03-14T04:29:11;11.30;89.00
68235;DHT22;55052;52.056;5.296;2023-03-14T04:31:39;11.30;88.90
68235;DHT22;55052;52.056;5.296;2023-03-14T04:34:05;11.30;88.80
68235;DHT22;55052;52.056;5.296;2023-03-14T04:36:32;11.30;88.80
68235;DHT22;55052;52.056;5.296;2023-03-14T04:38:59;11.30;88.70
68235;DHT22;55052;52.056;5.296;2023-03-14T04:41:26;11.30;88.60
68235;DHT22;55052;52.056;5.296;2023-03-14T04:43:53;11.30;88.60
68235;DHT22;55052;52.056;5.296;2023-03-14T04:46:19;11.40;88.70
68235;DHT22;55052;52.056;5.296;2023-03-14T04:48:46;11.40;88.60
68235;DHT22;55052;52.056;5.296;2023-03-14T04:51:13;11.40;88.50
68235;DHT22;55052;52.056;5.296;2023-03-14T04:53:39;11.40;88.50
68235;DHT22;55052;52.056;5.296;2023-03-14T04:56:07;11.40;88.50
68235;DHT22;55052;52.056;5.296;2023-03-14T04:58:33;11.40;88.50
68235;DHT22;55052;52.056;5.296;2023-03-14T05:01:04;11.40;88.50
68235;DHT22;55052;52.056;5.296;2023-03-14T05:03:31;11.40;88.50
68235;DHT22;55052;52.056;5.296;2023-03-14T05:05:58;11.40;88.50
68235;DHT22;55052;52.056;5.296;2023-03-14T05:08:25;11.40;88.50
68235;DHT22;55052;52.056;5.296;2023-03-14T05:10:53;11.40;88.70
68235;DHT22;55052;52.056;5.296;2023-03-14T05:13:20;11.40;88.90
68235;DHT22;55052;52.056;5.296;2023-03-14T05:15:47;11.30;88.90
68235;DHT22;55052;52.056;5.296;2023-03-14T05:18:14;11.40;89.10
68235;DHT22;55052;52.056;5.296;2023-03-14T05:20:40;11.40;89.40
68235;DHT22;55052;52.056;5.296;2023-03-14T05:23:09;11.30;89.50
68235;DHT22;55052;52.056;5.296;2023-03-14T05:25:36;11.30;89.60
68235;DHT22;55052;52.056;5.296;2023-03-14T05:28:03;11.30;89.80
68235;DHT22;55052;52.056;5.296;2023-03-14T05:30:30;11.30;90.00
68235;DHT22;55052;52.056;5.296;2023-03-14T05:32:57;11.20;90.00
68235;DHT22;55052;52.056;5.296;2023-03-14T05:35:24;11.20;90.10
68235;DHT22;55052;52.056;5.296;2023-03-14T05:37:50;11.20;90.20
68235;DHT22;55052;52.056;5.296;2023-03-14T05:40:17;11.20;90.30
68235;DHT22;55052;52.056;5.296;2023-03-14T05:42:44;11.10;90.40
68235;DHT22;55052;52.056;5.296;2023-03-14T05:45:11;11.10;90.50
68235;DHT22;55052;52.056;5.296;2023-03-14T05:47:38;11.10;90.60
68235;DHT22;55052;52.056;5.296;2023-03-14T05:50:05;11.10;90.70
68235;DHT22;55052;52.056;5.296;2023-03-14T05:52:31;11.10;90.90
68235;DHT22;55052;52.056;5.296;2023-03-14T05:54:58;11.00;90.90
68235;DHT22;55052;52.056;5.296;2023-03-14T05:57:25;11.00;91.00
68235;DHT22;55052;52.056;5.296;2023-03-14T05:59:52;11.00;91.10
68235;DHT22;55052;52.056;5.296;2023-03-14T06:02:18;11.00;91.20
68235;DHT22;55052;52.056;5.296;2023-03-14T06:04:45;11.00;91.30
68235;DHT22;55052;52.056;5.296;2023-03-14T06:07:12;11.00;91.40
68235;DHT22;55052;52.056;5.296;2023-03-14T06:09:39;11.00;91.50
68235;DHT22;55052;52.056;5.296;2023-03-14T06:12:06;10.90;91.50
68235;DHT22;55052;52.056;5.296;2023-03-14T06:14:33;10.90;91.70
68235;DHT22;55052;52.056;5.296;2023-03-14T06:16:59;10.90;91.80
68235;DHT22;55052;52.056;5.296;2023-03-14T06:19:26;10.90;91.90
68235;DHT22;55052;52.056;5.296;2023-03-14T06:21:53;10.90;91.90
68235;DHT22;55052;52.056;5.296;2023-03-14T06:24:20;10.90;92.10
68235;DHT22;55052;52.056;5.296;2023-03-14T06:26:46;10.90;92.20
68235;DHT22;55052;52.056;5.296;2023-03-14T06:29:13;10.90;92.20
68235;DHT22;55052;52.056;5.296;2023-03-14T06:31:40;10.90;92.30
68235;DHT22;55052;52.056;5.296;2023-03-14T06:34:07;10.90;92.30
68235;DHT22;55052;52.056;5.296;2023-03-14T06:36:33;10.90;92.40
68235;DHT22;55052;52.056;5.296;2023-03-14T06:39:00;10.80;92.20
68235;DHT22;55052;52.056;5.296;2023-03-14T06:41:27;10.80;92.30
68235;DHT22;55052;52.056;5.296;2023-03-14T06:43:54;10.70;92.30
68235;DHT22;55052;52.056;5.296;2023-03-14T06:46:22;10.60;91.90
68235;DHT22;55052;52.056;5.296;2023-03-14T06:48:49;10.40;91.60
68235;DHT22;55052;52.056;5.296;2023-03-14T06:51:16;10.30;91.70
68235;DHT22;55052;52.056;5.296;2023-03-14T06:53:43;10.20;91.80
68235;DHT22;55052;52.056;5.296;2023-03-14T06:56:09;10.10;91.80
68235;DHT22;55052;52.056;5.296;2023-03-14T06:58:36;10.10;91.80
68235;DHT22;55052;52.056;5.296;2023-03-14T07:01:03;10.00;91.80
68235;DHT22;55052;52.056;5.296;2023-03-14T07:03:30;9.90;91.80
68235;DHT22;55052;52.056;5.296;2023-03-14T07:05:57;9.80;91.90
68235;DHT22;55052;52.056;5.296;2023-03-14T07:08:24;9.80;91.90
68235;DHT22;55052;52.056;5.296;2023-03-14T07:10:51;9.70;91.90
68235;DHT22;55052;52.056;5.296;2023-03-14T07:13:18;9.70;91.90
68235;DHT22;55052;52.056;5.296;2023-03-14T07:15:45;9.60;92.00
68235;DHT22;55052;52.056;5.296;2023-03-14T07:18:11;9.60;92.00
68235;DHT22;55052;52.056;5.296;2023-03-14T07:20:38;9.60;92.10
68235;DHT22;55052;52.056;5.296;2023-03-14T07:23:05;9.50;92.10
68235;DHT22;55052;52.056;5.296;2023-03-14T07:25:32;9.50;92.20
68235;DHT22;55052;52.056;5.296;2023-03-14T07:27:59;9.50;92.20
68235;DHT22;55052;52.056;5.296;2023-03-14T07:30:26;9.40;92.60
68235;DHT22;55052;52.056;5.296;2023-03-14T07:32:53;9.40;92.20
68235;DHT22;55052;52.056;5.296;2023-03-14T07:35:20;9.40;92.30
68235;DHT22;55052;52.056;5.296;2023-03-14T07:37:46;9.30;92.40
68235;DHT22;55052;52.056;5.296;2023-03-14T07:40:13;9.30;92.40
68235;DHT22;55052;52.056;5.296;2023-03-14T07:42:42;9.30;92.40
68235;DHT22;55052;52.056;5.296;2023-03-14T07:45:09;9.20;92.40
68235;DHT22;55052;52.056;5.296;2023-03-14T07:47:38;9.20;92.50
68235;DHT22;55052;52.056;5.296;2023-03-14T07:50:05;9.20;92.50
68235;DHT22;55052;52.056;5.296;2023-03-14T07:52:32;9.20;92.50
68235;DHT22;55052;52.056;5.296;2023-03-14T07:54:59;9.20;93.00
68235;DHT22;55052;52.056;5.296;2023-03-14T07:57:26;9.10;92.60
68235;DHT22;55052;52.056;5.296;2023-03-14T07:59:53;9.10;92.50
68235;DHT22;55052;52.056;5.296;2023-03-14T08:02:19;9.10;92.30
68235;DHT22;55052;52.056;5.296;2023-03-14T08:04:49;9.00;92.10
68235;DHT22;55052;52.056;5.296;2023-03-14T08:07:16;8.90;92.20
68235;DHT22;55052;52.056;5.296;2023-03-14T08:09:43;8.80;92.10
68235;DHT22;55052;52.056;5.296;2023-03-14T08:12:10;8.80;92.10
68235;DHT22;55052;52.056;5.296;2023-03-14T08:14:37;8.80;92.10
68235;DHT22;55052;52.056;5.296;2023-03-14T08:17:04;8.70;92.20
68235;DHT22;55052;52.056;5.296;2023-03-14T08:19:31;8.70;92.10
68235;DHT22;55052;52.056;5.296;2023-03-14T08:21:58;8.60;92.10
68235;DHT22;55052;52.056;5.296;2023-03-14T08:24:25;8.60;92.00
68235;DHT22;55052;52.056;5.296;2023-03-14T08:26:52;8.50;92.00
68235;DHT22;55052;52.056;5.296;2023-03-14T08:29:18;8.50;92.10
68235;DHT22;55052;52.056;5.296;2023-03-14T08:31:45;8.40;92.40
68235;DHT22;55052;52.056;5.296;2023-03-14T08:34:12;8.30;91.80
68235;DHT22;55052;52.056;5.296;2023-03-14T08:36:39;8.20;91.60
68235;DHT22;55052;52.056;5.296;2023-03-14T08:39:05;8.20;91.60
68235;DHT22;55052;52.056;5.296;2023-03-14T08:41:34;8.10;91.60
68235;DHT22;55052;52.056;5.296;2023-03-14T08:44:07;8.00;91.60
68235;DHT22;55052;52.056;5.296;2023-03-14T08:46:34;7.90;91.40
68235;DHT22;55052;52.056;5.296;2023-03-14T08:49:01;7.80;91.20
68235;DHT22;55052;52.056;5.296;2023-03-14T08:51:28;7.60;91.30
68235;DHT22;55052;52.056;5.296;2023-03-14T08:53:55;7.60;91.60
68235;DHT22;55052;52.056;5.296;2023-03-14T08:56:22;7.60;91.80
68235;DHT22;55052;52.056;5.296;2023-03-14T08:58:51;7.60;91.80
68235;DHT22;55052;52.056;5.296;2023-03-14T09:01:18;7.60;91.80
68235;DHT22;55052;52.056;5.296;2023-03-14T09:03:47;7.60;91.90
68235;DHT22;55052;52.056;5.296;2023-03-14T09:06:14;7.60;91.90
68235;DHT22;55052;52.056;5.296;2023-03-14T09:08:44;7.60;92.00
68235;DHT22;55052;52.056;5.296;2023-03-14T09:11:12;7.60;92.40
68235;DHT22;55052;52.056;5.296;2023-03-14T09:13:39;7.60;91.90
68235;DHT22;55052;52.056;5.296;2023-03-14T09:16:07;7.60;92.00
68235;DHT22;55052;52.056;5.296;2023-03-14T09:18:34;7.70;91.90
68235;DHT22;55052;52.056;5.296;2023-03-14T09:21:01;7.70;91.90
68235;DHT22;55052;52.056;5.296;2023-03-14T09:23:27;7.70;91.80
68235;DHT22;55052;52.056;5.296;2023-03-14T09:25:56;7.60;91.70
68235;DHT22;55052;52.056;5.296;2023-03-14T09:28:23;7.60;91.70
68235;DHT22;55052;52.056;5.296;2023-03-14T09:30:50;7.60;91.70
68235;DHT22;55052;52.056;5.296;2023-03-14T09:33:17;7.70;91.70
68235;DHT22;55052;52.056;5.296;2023-03-14T09:35:44;7.60;91.60
68235;DHT22;55052;52.056;5.296;2023-03-14T09:38:10;7.60;91.70
68235;DHT22;55052;52.056;5.296;2023-03-14T09:40:38;7.70;91.70
68235;DHT22;55052;52.056;5.296;2023-03-14T09:43:05;7.70;91.60
68235;DHT22;55052;52.056;5.296;2023-03-14T09:45:34;7.70;91.50
68235;DHT22;55052;52.056;5.296;2023-03-14T09:48:04;7.70;91.60
68235;DHT22;55052;52.056;5.296;2023-03-14T09:50:37;7.70;91.60
68235;DHT22;55052;52.056;5.296;2023-03-14T09:53:11;7.70;91.50
68235;DHT22;55052;52.056;5.296;2023-03-14T09:55:39;7.80;91.40
68235;DHT22;55052;52.056;5.296;2023-03-14T09:58:13;7.70;91.30
68235;DHT22;55052;52.056;5.296;2023-03-14T10:00:40;7.80;91.30
68235;DHT22;55052;52.056;5.296;2023-03-14T10:03:32;7.80;91.30
68235;DHT22;55052;52.056;5.296;2023-03-14T10:06:00;7.80;91.30
68235;DHT22;55052;52.056;5.296;2023-03-14T10:08:27;7.90;91.40
68235;DHT22;55052;52.056;5.296;2023-03-14T10:10:54;7.90;91.30
68235;DHT22;55052;52.056;5.296;2023-03-14T10:13:22;8.00;91.30
68235;DHT22;55052;52.056;5.296;2023-03-14T10:15:59;8.10;91.20
68235;DHT22;55052;52.056;5.296;2023-03-14T10:18:29;8.10;91.00
68235;DHT22;55052;52.056;5.296;2023-03-14T10:21:22;8.10;90.80
68235;DHT22;55052;52.056;5.296;2023-03-14T10:23:52;8.00;90.40
68235;DHT22;55052;52.056;5.296;2023-03-14T10:26:28;7.90;90.20
68235;DHT22;55052;52.056;5.296;2023-03-14T10:29:24;7.70;89.80
68235;DHT22;55052;52.056;5.296;2023-03-14T10:31:57;7.50;89.60
68235;DHT22;55052;52.056;5.296;2023-03-14T10:34:31;7.40;89.80
68235;DHT22;55052;52.056;5.296;2023-03-14T10:37:23;7.30;90.10
68235;DHT22;55052;52.056;5.296;2023-03-14T10:39:51;7.30;90.30
68235;DHT22;55052;52.056;5.296;2023-03-14T10:42:26;7.30;90.50
68235;DHT22;55052;52.056;5.296;2023-03-14T10:45:01;7.40;90.50
68235;DHT22;55052;52.056;5.296;2023-03-14T10:47:29;7.40;90.60
68235;DHT22;55052;52.056;5.296;2023-03-14T10:49:57;7.40;90.70
68235;DHT22;55052;52.056;5.296;2023-03-14T10:52:33;7.50;90.90
68235;DHT22;55052;52.056;5.296;2023-03-14T10:55:24;7.50;90.90
68235;DHT22;55052;52.056;5.296;2023-03-14T10:57:52;7.60;90.90
68235;DHT22;55052;52.056;5.296;2023-03-14T11:00:23;7.70;90.80
68235;DHT22;55052;52.056;5.296;2023-03-14T11:07:46;7.60;90.20
68235;DHT22;55052;52.056;5.296;2023-03-14T11:13:22;7.60;90.10
68235;DHT22;55052;52.056;5.296;2023-03-14T11:15:53;7.60;90.00
68235;DHT22;55052;52.056;5.296;2023-03-14T11:18:51;7.60;89.90
68235;DHT22;55052;52.056;5.296;2023-03-14T11:21:40;7.70;89.90
68235;DHT22;55052;52.056;5.296;2023-03-14T11:27:21;7.80;90.00
68235;DHT22;55052;52.056;5.296;2023-03-14T11:32:57;7.80;88.70
68235;DHT22;55052;52.056;5.296;2023-03-14T11:35:39;7.80;88.60
68235;DHT22;55052;52.056;5.296;2023-03-14T11:38:13;7.90;88.70
68235;DHT22;55052;52.056;5.296;2023-03-14T11:40:41;8.00;88.30
68235;DHT22;55052;52.056;5.296;2023-03-14T11:45:38;8.20;87.30
68235;DHT22;55052;52.056;5.296;2023-03-14T11:48:25;8.30;86.10
68235;DHT22;55052;52.056;5.296;2023-03-14T11:50:57;8.30;84.50
68235;DHT22;55052;52.056;5.296;2023-03-14T11:53:34;8.30;83.60
68235;DHT22;55052;52.056;5.296;2023-03-14T11:56:02;8.40;81.70
68235;DHT22;55052;52.056;5.296;2023-03-14T11:58:34;8.40;82.40
68235;DHT22;55052;52.056;5.296;2023-03-14T12:01:08;8.30;81.20
68235;DHT22;55052;52.056;5.296;2023-03-14T12:04:03;8.30;80.10
68235;DHT22;55052;52.056;5.296;2023-03-14T12:06:45;8.30;79.30
68235;DHT22;55052;52.056;5.296;2023-03-14T12:09:15;8.30;78.60
68235;DHT22;55052;52.056;5.296;2023-03-14T12:11:51;8.40;78.20
68235;DHT22;55052;52.056;5.296;2023-03-14T12:17:18;8.50;75.80
68235;DHT22;55052;52.056;5.296;2023-03-14T12:19:47;8.50;75.30
68235;DHT22;55052;52.056;5.296;2023-03-14T12:22:26;8.60;74.10
68235;DHT22;55052;52.056;5.296;2023-03-14T12:24:57;8.70;73.70
68235;DHT22;55052;52.056;5.296;2023-03-14T12:27:46;8.70;73.00
68235;DHT22;55052;52.056;5.296;2023-03-14T12:35:57;8.80;71.20
68235;DHT22;55052;52.056;5.296;2023-03-14T12:38:29;8.80;71.00
68235;DHT22;55052;52.056;5.296;2023-03-14T12:41:15;8.80;69.80
68235;DHT22;55052;52.056;5.296;2023-03-14T12:43:43;8.80;69.50
68235;DHT22;55052;52.056;5.296;2023-03-14T12:46:28;8.80;69.10
68235;DHT22;55052;52.056;5.296;2023-03-14T12:51:30;8.80;68.20
68235;DHT22;55052;52.056;5.296;2023-03-14T12:54:21;8.90;68.70
68235;DHT22;55052;52.056;5.296;2023-03-14T12:59:50;8.90;66.40
68235;DHT22;55052;52.056;5.296;2023-03-14T13:02:25;8.90;66.80
68235;DHT22;55052;52.056;5.296;2023-03-14T13:05:12;9.00;65.40
68235;DHT22;55052;52.056;5.296;2023-03-14T13:10:22;9.10;63.90
68235;DHT22;55052;52.056;5.296;2023-03-14T13:13:15;9.10;64.30
68235;DHT22;55052;52.056;5.296;2023-03-14T13:15:48;9.10;64.00
68235;DHT22;55052;52.056;5.296;2023-03-14T13:18:40;9.00;63.50
68235;DHT22;55052;52.056;5.296;2023-03-14T13:21:22;9.00;63.30
68235;DHT22;55052;52.056;5.296;2023-03-14T13:24:24;9.00;62.80
68235;DHT22;55052;52.056;5.296;2023-03-14T13:26:52;9.00;61.90
68235;DHT22;55052;52.056;5.296;2023-03-14T13:29:22;9.00;61.70
68235;DHT22;55052;52.056;5.296;2023-03-14T13:31:55;9.00;62.90
68235;DHT22;55052;52.056;5.296;2023-03-14T13:34:32;9.00;62.40
68235;DHT22;55052;52.056;5.296;2023-03-14T13:37:00;9.00;61.60
68235;DHT22;55052;52.056;5.296;2023-03-14T13:39:28;9.00;61.60
68235;DHT22;55052;52.056;5.296;2023-03-14T13:42:00;9.00;61.20
68235;DHT22;55052;52.056;5.296;2023-03-14T13:44:34;9.00;60.40
68235;DHT22;55052;52.056;5.296;2023-03-14T13:47:04;9.00;60.70
68235;DHT22;55052;52.056;5.296;2023-03-14T13:49:33;9.00;60.90
68235;DHT22;55052;52.056;5.296;2023-03-14T13:52:03;9.00;60.60
68235;DHT22;55052;52.056;5.296;2023-03-14T13:54:31;9.00;60.60
68235;DHT22;55052;52.056;5.296;2023-03-14T13:57:03;8.90;60.40
68235;DHT22;55052;52.056;5.296;2023-03-14T13:59:31;8.90;60.30
68235;DHT22;55052;52.056;5.296;2023-03-14T14:02:03;8.90;61.10
68235;DHT22;55052;52.056;5.296;2023-03-14T14:04:33;8.90;60.90
68235;DHT22;55052;52.056;5.296;2023-03-14T14:07:08;8.90;60.70
68235;DHT22;55052;52.056;5.296;2023-03-14T14:09:39;8.90;60.70
68235;DHT22;55052;52.056;5.296;2023-03-14T14:14:46;8.80;60.50
68235;DHT22;55052;52.056;5.296;2023-03-14T14:17:18;8.80;60.80
68235;DHT22;55052;52.056;5.296;2023-03-14T14:19:46;8.80;60.90
68235;DHT22;55052;52.056;5.296;2023-03-14T14:22:14;8.80;60.40
68235;DHT22;55052;52.056;5.296;2023-03-14T14:24:41;8.80;61.10
68235;DHT22;55052;52.056;5.296;2023-03-14T14:27:14;8.80;60.20
68235;DHT22;55052;52.056;5.296;2023-03-14T14:29:43;8.90;60.00
68235;DHT22;55052;52.056;5.296;2023-03-14T14:32:14;8.80;59.20
68235;DHT22;55052;52.056;5.296;2023-03-14T14:34:43;8.80;58.80
68235;DHT22;55052;52.056;5.296;2023-03-14T14:39:56;8.70;58.30
68235;DHT22;55052;52.056;5.296;2023-03-14T14:42:31;8.70;58.40
68235;DHT22;55052;52.056;5.296;2023-03-14T14:44:58;8.60;58.10
68235;DHT22;55052;52.056;5.296;2023-03-14T14:47:27;8.60;58.10
68235;DHT22;55052;52.056;5.296;2023-03-14T14:49:58;8.50;57.70
68235;DHT22;55052;52.056;5.296;2023-03-14T14:52:41;8.50;58.00
68235;DHT22;55052;52.056;5.296;2023-03-14T14:55:16;8.40;57.10
68235;DHT22;55052;52.056;5.296;2023-03-14T14:57:50;8.40;57.20
68235;DHT22;55052;52.056;5.296;2023-03-14T15:00:22;8.30;57.80
68235;DHT22;55052;52.056;5.296;2023-03-14T15:02:52;8.40;58.20
68235;DHT22;55052;52.056;5.296;2023-03-14T15:05:23;8.40;58.30
68235;DHT22;55052;52.056;5.296;2023-03-14T15:07:51;8.40;58.50
68235;DHT22;55052;52.056;5.296;2023-03-14T15:10:21;8.40;58.40
68235;DHT22;55052;52.056;5.296;2023-03-14T15:12:48;8.40;58.30
68235;DHT22;55052;52.056;5.296;2023-03-14T15:15:16;8.40;58.20
68235;DHT22;55052;52.056;5.296;2023-03-14T15:17:43;8.40;58.30
68235;DHT22;55052;52.056;5.296;2023-03-14T15:20:13;8.30;58.10
68235;DHT22;55052;52.056;5.296;2023-03-14T15:22:41;8.30;58.00
68235;DHT22;55052;52.056;5.296;2023-03-14T15:25:09;8.30;57.50
68235;DHT22;55052;52.056;5.296;2023-03-14T15:27:52;8.30;57.30
68235;DHT22;55052;52.056;5.296;2023-03-14T15:30:19;8.30;57.30
68235;DHT22;55052;52.056;5.296;2023-03-14T15:32:46;8.20;57.00
68235;DHT22;55052;52.056;5.296;2023-03-14T15:35:13;8.20;57.00
68235;DHT22;55052;52.056;5.296;2023-03-14T15:37:43;8.20;56.80
68235;DHT22;55052;52.056;5.296;2023-03-14T15:40:12;8.20;56.90
68235;DHT22;55052;52.056;5.296;2023-03-14T15:42:41;8.10;56.70
68235;DHT22;55052;52.056;5.296;2023-03-14T15:45:08;8.10;57.00
68235;DHT22;55052;52.056;5.296;2023-03-14T15:47:35;8.10;56.50
68235;DHT22;55052;52.056;5.296;2023-03-14T15:50:02;8.10;56.40
68235;DHT22;55052;52.056;5.296;2023-03-14T15:52:29;8.00;56.60
68235;DHT22;55052;52.056;5.296;2023-03-14T15:54:56;8.10;56.60
68235;DHT22;55052;52.056;5.296;2023-03-14T15:57:23;8.10;56.80
68235;DHT22;55052;52.056;5.296;2023-03-14T15:59:51;8.10;57.40
68235;DHT22;55052;52.056;5.296;2023-03-14T16:02:18;8.10;57.40
68235;DHT22;55052;52.056;5.296;2023-03-14T16:04:44;8.10;57.50
68235;DHT22;55052;52.056;5.296;2023-03-14T16:07:12;8.20;57.60
68235;DHT22;55052;52.056;5.296;2023-03-14T16:09:38;8.20;57.70
68235;DHT22;55052;52.056;5.296;2023-03-14T16:12:05;8.20;58.00
68235;DHT22;55052;52.056;5.296;2023-03-14T16:14:33;8.20;57.60
68235;DHT22;55052;52.056;5.296;2023-03-14T16:17:00;8.20;57.70
68235;DHT22;55052;52.056;5.296;2023-03-14T16:19:27;8.10;57.60
68235;DHT22;55052;52.056;5.296;2023-03-14T16:21:54;8.20;58.70
68235;DHT22;55052;52.056;5.296;2023-03-14T16:24:21;8.10;58.20
68235;DHT22;55052;52.056;5.296;2023-03-14T16:26:48;8.10;59.30
68235;DHT22;55052;52.056;5.296;2023-03-14T16:29:15;8.10;58.50
68235;DHT22;55052;52.056;5.296;2023-03-14T16:31:42;8.00;58.80
68235;DHT22;55052;52.056;5.296;2023-03-14T16:34:10;8.00;59.00